Time;durP1;ratioP1;P1;durP2;ratioP2;P2;SDS_P1;SDS_P2;PMS_P1;PMS_P2;Temp;Humidity;BMP_temperature;BMP_pressure;BME280_temperature;BME280_humidity;BME280_pressure;Samples;Min_cycle;Max_cycle;Signal;HPM_P1;HPM_P2
2022/06/21 00:01:53;;;;;;;5.25;3.60;;;;;;;-145.69;100.00;71032.28;5075105;28;20538;-79
2022/06/21 00:04:20;;;;;;;5.40;4.43;;;;;;;-145.69;100.00;71044.22;5074971;28;20252;-79
2022/06/21 00:06:46;;;;;;;5.57;3.80;;;;;;;-145.69;100.00;71060.16;5075065;28;20210;-80
2022/06/21 00:09:14;;;;;;;6.07;4.00;;;;;;;-145.69;100.00;71076.06;5075058;28;20195;-79
2022/06/21 00:11:41;;;;;;;5.43;4.10;;;;;;;-145.69;100.00;71088.00;5075155;28;20195;-79
2022/06/21 00:14:08;;;;;;;7.03;4.28;;;;;;;-145.69;100.00;71101.94;5075152;28;20203;-79
2022/06/21 00:16:36;;;;;;;6.30;4.13;;;;;;;-145.69;100.00;71121.84;5074530;28;20190;-80
2022/06/21 00:19:04;;;;;;;5.00;3.78;;;;;;;-145.69;100.00;71127.81;5074942;28;20202;-79
2022/06/21 00:21:34;;;;;;;5.68;4.40;;;;;;;-145.69;100.00;71139.75;5074248;28;20190;-79
2022/06/21 00:24:00;;;;;;;7.68;4.55;;;;;;;-145.69;100.00;71157.66;5074924;28;20246;-80
2022/06/21 00:26:29;;;;;;;6.18;4.10;;;;;;;-145.69;100.00;71167.59;5074515;28;20559;-79
2022/06/21 00:28:55;;;;;;;6.38;4.65;;;;;;;-145.69;100.00;71171.56;5074833;28;20198;-79
2022/06/21 00:31:25;;;;;;;5.32;4.30;;;;;;;-145.69;100.00;71179.53;5073777;28;20557;-79
2022/06/21 00:33:53;;;;;;;6.88;4.53;;;;;;;-145.69;100.00;71187.50;5074581;28;20599;-79
2022/06/21 00:36:24;;;;;;;6.05;4.25;;;;;;;-145.69;100.00;71187.50;5074715;28;20206;-79
2022/06/21 00:38:51;;;;;;;7.18;4.95;;;;;;;-145.69;100.00;71185.50;5074642;28;20261;-79
2022/06/21 00:41:22;;;;;;;7.45;5.05;;;;;;;-145.69;100.00;71167.59;5074525;28;20286;-79
2022/06/21 00:43:51;;;;;;;7.15;5.40;;;;;;;-145.69;100.00;71143.72;5074180;28;20250;-79
2022/06/21 00:46:28;;;;;;;10.45;4.90;;;;;;;-145.69;100.00;71123.81;5073018;28;20661;-78
2022/06/21 00:48:56;;;;;;;7.03;4.65;;;;;;;-145.69;100.00;71099.94;5074233;28;20209;-79
2022/06/21 00:51:28;;;;;;;6.93;5.20;;;;;;;-145.69;100.00;71088.00;5073451;28;20521;-79
2022/06/21 00:53:58;;;;;;;7.22;4.28;;;;;;;-145.69;100.00;71080.06;5074368;28;20256;-79
2022/06/21 00:56:29;;;;;;;7.93;4.07;;;;;;;-145.69;100.00;71064.13;5073767;28;20206;-79
2022/06/21 00:58:56;;;;;;;5.78;4.03;;;;;;;-145.69;100.00;71062.13;5074016;28;20203;-79
2022/06/21 01:01:25;;;;;;;5.75;4.05;;;;;;;-145.69;100.00;71046.22;5074443;28;20203;-79
2022/06/21 01:03:54;;;;;;;6.32;4.28;;;;;;;-145.69;100.00;71048.22;5073560;28;20226;-79
2022/06/21 01:06:27;;;;;;;6.18;3.88;;;;;;;-145.69;100.00;71060.16;5073984;28;20214;-79
2022/06/21 01:08:58;;;;;;;5.80;3.72;;;;;;;-145.69;100.00;71070.09;5073859;28;20679;-80
2022/06/21 01:11:29;;;;;;;4.55;3.67;;;;;;;-145.69;100.00;71076.06;5073806;28;20203;-79
2022/06/21 01:13:58;;;;;;;5.45;3.83;;;;;;;-145.69;100.00;71074.09;5073723;28;20202;-79
2022/06/21 01:16:28;;;;;;;9.70;4.28;;;;;;;-145.69;100.00;71072.09;5073903;28;20198;-79
2022/06/21 01:18:54;;;;;;;5.85;3.80;;;;;;;-145.69;100.00;71084.03;5073662;28;20207;-79
2022/06/21 01:21:23;;;;;;;5.63;3.53;;;;;;;-145.69;100.00;71095.97;5073557;28;20199;-79
2022/06/21 01:24:06;;;;;;;8.07;4.13;;;;;;;-145.69;100.00;71109.91;5073529;28;20256;-79
2022/06/21 01:26:52;;;;;;;8.32;3.85;;;;;;;-145.69;100.00;71127.81;5073473;28;20252;-79
2022/06/21 01:29:22;;;;;;;8.05;4.07;;;;;;;-145.69;100.00;71147.69;5073080;28;20199;-79
2022/06/21 01:31:50;;;;;;;5.50;4.10;;;;;;;-145.69;100.00;71147.69;5073376;28;20665;-79
2022/06/21 01:34:19;;;;;;;7.65;4.47;;;;;;;-145.69;100.00;71145.72;5066783;28;20215;-79
2022/06/21 01:36:47;;;;;;;7.70;4.20;;;;;;;-145.69;100.00;71151.69;5053287;28;20651;-79
2022/06/21 01:39:21;;;;;;;5.50;4.22;;;;;;;-145.69;100.00;71159.63;5070327;28;20195;-79
2022/06/21 01:41:55;;;;;;;12.25;4.55;;;;;;;-145.69;100.00;71163.63;5073358;28;20213;-80
2022/06/21 01:44:26;;;;;;;5.60;4.17;;;;;;;-145.69;100.00;71171.56;5072896;28;20261;-79
2022/06/21 01:46:52;;;;;;;6.20;4.47;;;;;;;-145.69;100.00;71179.53;5072765;28;20206;-80
2022/06/21 01:49:24;;;;;;;5.38;4.05;;;;;;;-145.69;100.00;71191.47;5073377;28;20198;-79
2022/06/21 01:51:54;;;;;;;11.83;4.53;;;;;;;-145.69;100.00;71213.38;5073272;28;20260;-79
2022/06/21 01:54:24;;;;;;;9.37;4.63;;;;;;;-145.69;100.00;71223.31;5073146;28;20589;-79
2022/06/21 01:56:53;;;;;;;7.63;4.70;;;;;;;-145.69;100.00;71225.31;5072481;28;20199;-79
2022/06/21 01:59:23;;;;;;;6.97;4.38;;;;;;;-145.69;100.00;71217.34;5072833;28;20191;-79
2022/06/21 02:01:52;;;;;;;7.60;4.13;;;;;;;-145.69;100.00;71217.34;5073202;28;20620;-79
2022/06/21 02:04:22;;;;;;;10.37;4.97;;;;;;;-145.69;100.00;71217.34;5073029;28;20226;-79
2022/06/21 02:06:51;;;;;;;6.60;4.75;;;;;;;-145.69;100.00;71223.31;5072582;28;20908;-79
2022/06/21 02:09:22;;;;;;;6.10;4.50;;;;;;;-145.69;100.00;71221.31;5072590;28;20668;-79
2022/06/21 02:11:57;;;;;;;6.23;4.60;;;;;;;-145.69;100.00;71219.34;5072932;28;20252;-79
2022/06/21 02:14:29;;;;;;;7.10;4.63;;;;;;;-145.69;100.00;71221.31;5072907;28;20560;-79
2022/06/21 02:17:04;;;;;;;5.23;3.73;;;;;;;-145.69;100.00;71231.28;5072979;28;20217;-79
2022/06/21 02:19:36;;;;;;;7.00;4.13;;;;;;;-145.69;100.00;71233.25;5072686;28;20209;-79
2022/06/21 02:22:03;;;;;;;7.47;4.13;;;;;;;-145.69;100.00;71235.25;5071904;28;20237;-79
2022/06/21 02:24:30;;;;;;;9.07;4.23;;;;;;;-145.69;100.00;71237.25;5072557;28;20234;-79
2022/06/21 02:27:00;;;;;;;5.13;3.90;;;;;;;-145.69;100.00;71235.25;5072906;28;20195;-80
2022/06/21 02:29:28;;;;;;;6.93;3.80;;;;;;;-145.69;100.00;71243.22;5072944;28;20654;-80
2022/06/21 02:31:54;;;;;;;4.93;4.10;;;;;;;-145.69;100.00;71245.19;5072644;28;20593;-78
2022/06/21 02:34:28;;;;;;;8.97;4.33;;;;;;;-145.69;100.00;71253.16;5072791;28;20236;-79
2022/06/21 02:36:58;;;;;;;5.63;4.03;;;;;;;-145.69;100.00;71263.09;5072659;28;20199;-79
2022/06/21 02:39:28;;;;;;;5.90;4.57;;;;;;;-145.69;100.00;71273.06;5072928;28;20538;-79
2022/06/21 02:42:00;;;;;;;6.97;4.53;;;;;;;-145.69;100.00;71277.03;5072011;28;20798;-79
2022/06/21 02:44:30;;;;;;;5.47;4.20;;;;;;;-145.69;100.00;71273.06;5072337;28;20218;-79
2022/06/21 02:47:02;;;;;;;4.83;3.83;;;;;;;-145.69;100.00;71279.03;5072628;28;20538;-79
2022/06/21 02:49:37;;;;;;;6.30;3.90;;;;;;;-145.69;100.00;71281.00;5072370;28;20209;-79
2022/06/21 02:52:09;;;;;;;6.23;3.73;;;;;;;-145.69;100.00;71279.03;5072257;28;20672;-79
2022/06/21 02:54:41;;;;;;;6.67;3.90;;;;;;;-145.69;100.00;71279.03;5072460;28;20206;-79
2022/06/21 02:57:14;;;;;;;8.23;4.37;;;;;;;-145.69;100.00;71263.09;5072339;28;20195;-78
2022/06/21 02:59:44;;;;;;;7.10;4.10;;;;;;;-145.69;100.00;71263.09;5072533;28;20198;-79
2022/06/21 03:02:13;;;;;;;6.30;3.87;;;;;;;-145.69;100.00;71271.06;5072344;28;20222;-79
2022/06/21 03:04:44;;;;;;;6.93;4.03;;;;;;;-145.69;100.00;71273.06;5072297;28;20227;-79
2022/06/21 03:07:15;;;;;;;7.83;4.00;;;;;;;-145.69;100.00;71271.06;5072562;28;20262;-79
2022/06/21 03:09:42;;;;;;;5.30;4.13;;;;;;;-145.69;100.00;71275.03;5074409;28;20195;-79
2022/06/21 03:12:16;;;;;;;6.77;4.70;;;;;;;-145.69;100.00;71279.03;5075950;28;20205;-79
2022/06/21 03:14:44;;;;;;;4.87;4.07;;;;;;;-145.69;100.00;71275.03;5076211;28;20206;-79
2022/06/21 03:17:16;;;;;;;6.80;4.23;;;;;;;-145.69;100.00;71275.03;5076217;28;20237;-79
2022/06/21 03:19:48;;;;;;;6.90;4.53;;;;;;;-145.69;100.00;71279.03;5075943;28;20668;-80
2022/06/21 03:22:18;;;;;;;8.77;4.47;;;;;;;-145.69;100.00;71277.03;5075338;28;20231;-79
2022/06/21 03:24:47;;;;;;;8.23;4.20;;;;;;;-145.69;100.00;71259.13;5075614;28;20238;-79
2022/06/21 03:27:25;;;;;;;12.67;5.67;;;;;;;-145.69;100.00;71261.13;5076016;28;20202;-79
2022/06/21 03:29:52;;;;;;;8.33;4.60;;;;;;;-145.69;100.00;71267.09;5075921;28;20218;-79
2022/06/21 03:32:18;;;;;;;11.87;4.57;;;;;;;-145.69;100.00;71267.09;5075751;28;20680;-79
2022/06/21 03:34:46;;;;;;;6.60;4.57;;;;;;;-145.69;100.00;71269.06;5075520;28;20599;-79
2022/06/21 03:37:13;;;;;;;5.80;4.07;;;;;;;-145.69;100.00;71259.13;5074790;28;20811;-79
2022/06/21 03:42:31;;;;;;;7.87;5.30;;;;;;;-145.69;100.00;71243.22;5055656;28;20233;-79
2022/06/21 03:45:01;;;;;;;6.40;4.60;;;;;;;-145.69;100.00;71229.28;5060642;28;20688;-79
2022/06/21 03:47:34;;;;;;;7.60;4.93;;;;;;;-145.69;100.00;71219.34;5075576;28;20202;-79
2022/06/21 03:50:04;;;;;;;5.68;4.13;;;;;;;-145.69;100.00;71205.41;5075656;28;20186;-79
2022/06/21 03:52:43;;;;;;;6.57;4.67;;;;;;;-145.69;100.00;71199.44;5075363;28;20206;-79
2022/06/21 03:55:18;;;;;;;7.05;4.43;;;;;;;-145.69;100.00;71179.53;5075403;28;20207;-80
2022/06/21 03:57:52;;;;;;;6.60;4.67;;;;;;;-145.69;100.00;71161.63;5075188;28;20255;-80
2022/06/21 04:00:19;;;;;;;6.43;4.47;;;;;;;-145.69;100.00;71147.69;5074917;28;20199;-80
2022/06/21 04:02:51;;;;;;;7.47;4.95;;;;;;;-145.69;100.00;71141.72;5075162;28;20651;-80
2022/06/21 04:05:23;;;;;;;7.82;4.68;;;;;;;-145.69;100.00;71163.63;5075319;28;20226;-80
2022/06/21 04:07:56;;;;;;;7.38;4.18;;;;;;;-145.69;100.00;71147.69;5075137;28;20195;-79
2022/06/21 04:10:28;;;;;;;8.48;4.53;;;;;;;-145.69;100.00;71141.72;5074840;28;20202;-80
2022/06/21 04:13:03;;;;;;;8.85;4.05;;;;;;;-145.69;100.00;71147.69;5074650;28;20206;-79
2022/06/21 04:15:33;;;;;;;5.15;3.65;;;;;;;-145.69;100.00;71135.75;5074868;28;20699;-78
2022/06/21 04:18:05;;;;;;;7.10;3.88;;;;;;;-145.69;100.00;71111.88;5075099;28;20207;-79
2022/06/21 04:20:39;;;;;;;6.50;4.35;;;;;;;-145.69;100.00;71095.97;5074519;28;20202;-80
2022/06/21 04:23:11;;;;;;;7.88;4.03;;;;;;;-145.69;100.00;71080.06;5074703;28;20258;-79
2022/06/21 04:25:46;;;;;;;6.00;3.40;;;;;;;-145.69;100.00;71066.13;5074971;28;20203;-79
2022/06/21 04:28:18;;;;;;;8.57;4.93;;;;;;;-145.69;100.00;71066.13;5074469;28;20560;-79
2022/06/21 04:30:52;;;;;;;6.53;4.10;;;;;;;-145.69;100.00;71046.22;5074756;28;20206;-78
2022/06/21 04:33:24;;;;;;;5.43;3.97;;;;;;;-145.69;100.00;71018.38;5074403;28;20522;-79
2022/06/21 04:35:56;;;;;;;5.55;3.75;;;;;;;-145.69;100.00;71028.31;5074444;28;20680;-79
2022/06/21 04:38:28;;;;;;;7.05;4.00;;;;;;;-145.69;100.00;70992.50;5074671;28;20206;-79
2022/06/21 04:40:58;;;;;;;7.50;3.90;;;;;;;-145.69;100.00;70988.53;5074657;28;20202;-79
2022/06/21 04:43:31;;;;;;;6.05;4.15;;;;;;;-145.69;100.00;70976.59;5074323;28;20228;-78
2022/06/21 04:46:02;;;;;;;4.53;3.45;;;;;;;-145.69;100.00;70946.75;5074209;28;20581;-79
2022/06/21 04:48:34;;;;;;;5.68;3.45;;;;;;;-145.69;100.00;70952.72;5074535;28;20203;-79
2022/06/21 04:51:07;;;;;;;6.70;3.63;;;;;;;-145.69;100.00;70944.75;5074322;28;20221;-79
2022/06/21 04:53:41;;;;;;;6.95;4.40;;;;;;;-145.69;100.00;70940.78;5074360;28;20353;-79
2022/06/21 04:56:14;;;;;;;7.05;3.40;;;;;;;-145.69;100.00;70924.84;5074234;28;20206;-79
2022/06/21 04:58:45;;;;;;;4.97;3.70;;;;;;;-145.69;100.00;70910.94;5073394;28;20596;-79
2022/06/21 05:03:53;;;;;;;7.50;5.55;;;;;;;-145.69;100.00;70879.09;5064685;28;20751;-79
2022/06/21 05:06:21;;;;;;;10.40;6.15;;;;;;;-145.69;100.00;70873.13;5073995;28;20593;-79
2022/06/21 05:08:49;;;;;;;7.38;5.60;;;;;;;-145.69;100.00;70857.22;5073903;28;20277;-78
2022/06/21 05:11:19;;;;;;;6.95;5.05;;;;;;;-145.69;100.00;70849.25;5073485;28;20195;-79
2022/06/21 05:13:49;;;;;;;9.00;5.55;;;;;;;-145.69;100.00;70851.25;5073919;28;20225;-79
2022/06/21 05:16:21;;;;;;;9.23;5.63;;;;;;;-145.69;100.00;70845.28;5073623;28;20692;-79
2022/06/21 05:18:54;;;;;;;11.95;7.03;;;;;;;-145.69;100.00;70845.28;5073482;28;20205;-79
2022/06/21 05:21:29;;;;;;;9.73;5.90;;;;;;;-145.69;100.00;70829.34;5073529;28;20206;-79
2022/06/21 05:23:56;;;;;;;10.43;7.28;;;;;;;-145.69;100.00;70847.25;5073253;28;20228;-79
2022/06/21 05:26:31;;;;;;;8.40;5.72;;;;;;;-145.69;100.00;70849.25;5073548;28;20198;-79
2022/06/21 05:29:06;;;;;;;11.35;8.00;;;;;;;-145.69;100.00;70881.09;5073284;28;20440;-79
2022/06/21 05:31:39;;;;;;;10.07;6.18;;;;;;;-145.69;100.00;70877.09;5073098;28;20205;-79
2022/06/21 05:34:14;;;;;;;8.80;6.40;;;;;;;-145.69;100.00;70885.06;5073104;28;20203;-79
2022/06/21 05:36:50;;;;;;;9.25;6.65;;;;;;;-145.69;100.00;70922.88;5073117;28;20206;-79
2022/06/21 05:39:22;;;;;;;9.63;6.10;;;;;;;-145.69;100.00;70958.69;5073427;28;20202;-79
2022/06/21 05:41:55;;;;;;;9.60;5.30;;;;;;;-145.69;100.00;70936.78;5073322;28;20284;-79
2022/06/21 05:44:34;;;;;;;7.28;4.90;;;;;;;-145.69;100.00;70920.88;5073027;28;20222;-79
2022/06/21 05:47:05;;;;;;;7.82;5.20;;;;;;;-145.69;100.00;70881.09;5071300;28;20230;-79
2022/06/21 05:49:34;;;;;;;11.68;5.70;;;;;;;-145.69;100.00;70819.41;5073267;28;20203;-79
2022/06/21 05:52:06;;;;;;;6.18;4.25;;;;;;;-145.69;96.09;70747.78;5073117;28;20205;-80
2022/06/21 05:54:37;;;;;;;7.40;4.50;;;;;;;-145.69;85.53;70624.44;5072247;28;20449;-80
2022/06/21 05:57:07;;;;;;;6.05;4.03;;;;;;;-145.69;90.88;70709.97;5072977;28;20665;-80
2022/06/21 05:59:35;;;;;;;6.03;4.30;;;;;;;-145.69;87.36;70656.25;5072785;28;20688;-80
2022/06/21 06:02:08;;;;;;;7.78;3.83;;;;;;;-145.69;84.83;70578.69;5072937;28;20195;-78
2022/06/21 06:04:41;;;;;;;7.18;2.85;;;;;;;-145.69;82.47;70566.75;5071799;28;20452;-80
2022/06/21 06:07:13;;;;;;;5.45;3.35;;;;;;;-145.69;82.29;70594.59;5072958;28;20199;-77
2022/06/21 06:09:44;;;;;;;11.15;3.75;;;;;;;-145.69;83.23;70606.53;5072984;28;20234;-78
2022/06/21 06:12:18;;;;;;;5.63;3.30;;;;;;;-145.69;81.66;70572.72;5072200;28;20244;-80
2022/06/21 06:14:51;;;;;;;5.72;3.25;;;;;;;-145.69;81.10;70558.78;5072942;28;20285;-78
2022/06/21 06:17:26;;;;;;;3.67;2.92;;;;;;;-145.69;77.36;70526.94;5073043;28;20226;-80
2022/06/21 06:20:00;;;;;;;5.13;2.67;;;;;;;-145.69;73.32;70491.13;5072679;28;20190;-79
2022/06/21 06:22:35;;;;;;;6.80;3.40;;;;;;;-145.69;78.54;70558.78;5072568;28;20230;-78
2022/06/21 06:25:09;;;;;;;5.80;3.17;;;;;;;-145.69;77.98;70542.88;5072454;28;20229;-78
2022/06/21 06:27:45;;;;;;;4.55;2.80;;;;;;;-145.69;78.55;70534.91;5073038;28;20256;-79
2022/06/21 06:30:17;;;;;;;6.30;2.72;;;;;;;-145.69;79.51;70513.03;5072496;28;20282;-79
2022/06/21 06:32:47;;;;;;;6.45;3.25;;;;;;;-145.69;81.27;70544.84;5072717;28;20653;-79
2022/06/21 06:35:18;;;;;;;4.68;2.72;;;;;;;-145.69;81.39;70594.59;5072340;28;20233;-79
2022/06/21 06:37:46;;;;;;;3.00;2.42;;;;;;;-145.69;81.45;70618.47;5072715;28;20191;-78
2022/06/21 06:40:21;;;;;;;5.03;2.83;;;;;;;-145.69;81.73;70650.28;5072360;28;20298;-79
2022/06/21 06:42:50;;;;;;;4.22;2.90;;;;;;;-145.69;82.23;70658.25;5052616;28;20285;-79
2022/06/21 06:45:22;;;;;;;9.25;3.00;;;;;;;-145.69;87.21;70702.03;5055932;28;20705;-79
2022/06/21 06:47:52;;;;;;;7.18;2.85;;;;;;;-145.69;89.74;70670.19;5056592;28;20249;-78
2022/06/21 06:50:24;;;;;;;6.35;3.10;;;;;;;-145.69;85.33;70668.19;5056723;28;20196;-78
2022/06/21 06:52:56;;;;;;;5.45;2.67;;;;;;;-145.69;84.73;70664.22;5058081;28;20229;-78
2022/06/21 06:55:30;;;;;;;3.50;2.35;;;;;;;-145.69;83.92;70616.47;5056445;28;20608;-78
2022/06/21 06:58:00;;;;;;;4.68;2.60;;;;;;;-145.69;82.25;70574.69;5056327;28;20194;-79
2022/06/21 07:00:35;;;;;;;3.92;2.30;;;;;;;-145.69;78.04;70503.06;5056325;28;20272;-78
2022/06/21 07:03:06;;;;;;;9.63;2.38;;;;;;;-145.69;76.52;70522.97;5056444;28;20611;-78
2022/06/21 07:05:37;;;;;;;4.63;2.40;;;;;;;-145.69;75.38;70519.00;5056141;28;20241;-79
2022/06/21 07:08:13;;;;;;;7.65;2.45;;;;;;;-145.69;74.65;70534.91;5056537;28;20199;-78
2022/06/21 07:10:40;;;;;;;3.60;2.15;;;;;;;-145.69;73.90;70465.28;5056413;28;20210;-80
2022/06/21 07:13:09;;;;;;;7.05;2.42;;;;;;;-145.69;72.51;70511.03;5056143;28;20203;-80
2022/06/21 07:15:40;;;;;;;4.00;2.00;;;;;;;-145.69;71.99;70495.13;5055958;28;20195;-80
2022/06/21 07:18:13;;;;;;;5.90;2.10;;;;;;;-145.69;71.57;70493.13;5056040;28;20206;-80
2022/06/21 07:20:42;;;;;;;5.15;2.40;;;;;;;-145.69;71.92;70507.06;5056172;28;20605;-80
2022/06/21 07:23:14;;;;;;;5.90;1.90;;;;;;;-145.69;75.32;70475.22;5055817;28;20353;-80
2022/06/21 07:25:44;;;;;;;7.97;2.10;;;;;;;-145.69;71.17;70473.22;5055994;28;20318;-80
2022/06/21 07:28:15;;;;;;;4.97;2.25;;;;;;;-145.69;73.62;70505.06;5055961;28;20257;-80
2022/06/21 07:30:49;;;;;;;4.72;2.10;;;;;;;-145.69;72.04;70489.16;5069658;28;20256;-80
2022/06/21 07:33:24;;;;;;;5.47;1.80;;;;;;;-145.69;70.36;70399.63;5075503;28;20194;-80
2022/06/21 07:35:57;;;;;;;6.80;2.22;;;;;;;-145.69;68.43;70379.72;5075937;28;20202;-78
2022/06/21 07:38:31;;;;;;;6.40;2.15;;;;;;;-145.69;70.07;70385.69;5074906;28;20449;-81
2022/06/21 07:41:02;;;;;;;4.63;1.77;;;;;;;-145.69;64.91;70328.00;5075676;28;20206;-80
2022/06/21 07:43:34;;;;;;;4.68;1.75;;;;;;;-145.69;66.56;70332.00;5075868;28;20202;-80
2022/06/21 07:46:05;;;;;;;4.97;2.10;;;;;;;-145.69;66.19;70345.91;5075558;28;20627;-80
2022/06/21 07:48:38;;;;;;;4.85;2.08;;;;;;;-145.69;66.41;70373.78;5065967;28;20208;-80
2022/06/21 07:51:08;;;;;;;5.47;1.50;;;;;;;-145.69;69.87;70361.84;5055516;28;20234;-80
2022/06/21 07:53:39;;;;;;;12.38;1.70;;;;;;;-145.69;68.32;70371.78;5055391;28;20252;-80
2022/06/21 07:56:13;;;;;;;3.70;1.83;;;;;;;-145.69;64.54;70351.88;5055089;28;20203;-80
2022/06/21 07:58:45;;;;;;;5.38;1.95;;;;;;;-145.69;63.51;70322.03;5055630;28;20203;-80
2022/06/21 08:07:03;;;;;;;2.42;1.70;;;;;;;-145.69;61.48;70316.06;5055258;28;20288;-79
2022/06/21 08:09:36;;;;;;;5.03;1.58;;;;;;;-145.69;63.64;70337.97;5055212;28;20199;-80
2022/06/21 08:12:02;;;;;;;4.78;1.77;;;;;;;-145.69;61.74;70232.53;5055171;28;20199;-80
2022/06/21 08:14:32;;;;;;;5.28;1.60;;;;;;;-145.69;61.44;70172.84;5054921;28;20692;-80
2022/06/21 08:17:06;;;;;;;5.40;1.92;;;;;;;-145.69;60.58;70250.44;5055068;28;20203;-80
2022/06/21 08:19:38;;;;;;;5.85;1.85;;;;;;;-145.69;59.28;70208.66;5055019;28;20609;-80
2022/06/21 08:22:08;;;;;;;7.28;1.98;;;;;;;-145.69;63.75;70216.63;5054906;28;20318;-80
2022/06/21 08:24:41;;;;;;;4.97;1.60;;;;;;;-145.69;59.41;70194.72;5055245;28;20647;-79
2022/06/21 08:27:17;;;;;;;6.65;2.08;;;;;;;-145.69;57.98;70129.09;5055025;28;20204;-80
2022/06/21 08:29:48;;;;;;;6.60;2.05;;;;;;;-145.69;66.04;70246.44;5060618;28;20657;-80
2022/06/21 08:32:23;;;;;;;5.68;2.10;;;;;;;-145.69;67.34;70300.16;5074854;28;20203;-80
2022/06/21 08:34:56;;;;;;;3.13;1.65;;;;;;;-145.69;68.68;70248.44;5074759;28;20202;-80
2022/06/21 08:37:30;;;;;;;4.20;1.70;;;;;;;-145.69;66.25;70278.28;5074569;28;20194;-80
2022/06/21 08:40:09;;;;;;;3.17;1.88;;;;;;;-145.69;64.58;70244.47;5074562;28;20657;-80
2022/06/21 08:43:17;;;;;;;9.40;2.08;;;;;;;-145.69;61.42;70220.59;5074679;28;20194;-80
2022/06/21 08:46:09;;;;;;;3.65;1.60;;;;;;;-145.69;63.44;70204.69;5026816;28;20222;-80
2022/06/21 08:49:03;;;;;;;6.05;1.83;;;;;;;-145.69;61.52;70200.69;5071219;28;20203;-80
2022/06/21 08:51:59;;;;;;;6.05;2.42;;;;;;;-145.69;62.54;70184.78;5072576;28;20209;-79
2022/06/21 08:54:38;;;;;;;4.25;1.70;;;;;;;-145.69;61.13;70158.94;5072060;28;20799;-80
2022/06/21 08:57:12;;;;;;;5.18;2.10;;;;;;;-145.69;62.60;70145.00;5073222;28;20832;-80
2022/06/21 08:59:55;;;;;;;7.20;1.85;;;;;;;-145.69;61.83;70222.56;5072690;28;20688;-80
2022/06/21 09:02:30;;;;;;;3.40;1.60;;;;;;;-145.69;64.69;70252.41;5073315;28;20748;-81
2022/06/21 09:05:13;;;;;;;6.28;1.90;;;;;;;-145.69;62.99;70254.41;5073619;28;20562;-83
2022/06/21 09:07:55;;;;;;;4.72;1.75;;;;;;;-145.69;65.04;70172.84;5074124;28;20206;-83
2022/06/21 09:10:48;;;;;;;6.03;2.28;;;;;;;-145.69;62.51;70182.78;5074400;28;20206;-82
2022/06/21 09:13:39;;;;;;;6.07;1.70;;;;;;;-145.69;61.07;70127.09;5074946;28;20290;-82
2022/06/21 09:16:14;;;;;;;3.72;2.10;;;;;;;-145.69;65.95;70160.91;5073977;28;20198;-83
2022/06/21 09:18:53;;;;;;;4.22;2.10;;;;;;;-145.69;63.67;70077.38;5073860;28;20195;-83
2022/06/21 09:21:27;;;;;;;5.43;2.17;;;;;;;-145.69;63.96;70081.34;5073810;28;20194;-82
2022/06/21 09:23:58;;;;;;;5.97;2.25;;;;;;;-145.69;66.55;70117.16;5073626;28;20383;-82
2022/06/21 09:26:33;;;;;;;5.53;2.30;;;;;;;-145.69;66.15;70073.38;5073583;28;20222;-83
2022/06/21 09:29:10;;;;;;;3.60;2.17;;;;;;;-145.69;63.17;70037.59;5073774;28;20216;-82
2022/06/21 09:31:45;;;;;;;6.32;2.45;;;;;;;-145.69;61.07;70097.25;5053478;28;20210;-82
2022/06/21 09:34:22;;;;;;;8.32;2.80;;;;;;;-145.69;63.35;70103.22;5053719;28;20203;-82
2022/06/21 09:36:59;;;;;;;4.50;2.17;;;;;;;-145.69;64.01;70041.56;5053500;28;20704;-81
2022/06/21 09:39:32;;;;;;;5.55;1.98;;;;;;;-145.69;65.33;69973.94;5053618;28;20278;-82
2022/06/21 09:42:04;;;;;;;5.50;2.28;;;;;;;-145.69;64.24;69928.19;5055664;28;20203;-81
2022/06/21 09:44:38;;;;;;;4.40;2.30;;;;;;;-145.69;64.89;69912.25;5053627;28;20206;-80
2022/06/21 09:47:13;;;;;;;3.55;2.40;;;;;;;-145.69;58.48;69914.25;5053446;28;20238;-82
2022/06/21 09:49:50;;;;;;;7.10;2.42;;;;;;;-145.69;63.27;69962.00;5053375;28;20210;-81
2022/06/21 09:52:30;;;;;;;5.57;2.92;;;;;;;-145.69;62.86;69969.94;5053156;28;20209;-82
2022/06/21 09:55:05;;;;;;;5.30;2.20;;;;;;;-145.69;65.81;69967.97;5053104;28;20646;-82
2022/06/21 09:57:41;;;;;;;5.45;2.40;;;;;;;-145.69;64.63;69914.25;5053196;28;20209;-82
2022/06/21 10:00:16;;;;;;;9.15;2.45;;;;;;;-145.69;63.11;69918.22;5053234;28;20199;-82
2022/06/21 10:02:58;;;;;;;3.72;2.45;;;;;;;-145.69;61.97;69888.41;5052998;28;20201;-82
2022/06/21 10:05:31;;;;;;;5.20;2.50;;;;;;;-145.69;61.16;69894.38;5052935;28;20764;-82
2022/06/21 10:08:21;;;;;;;3.10;2.38;;;;;;;-145.69;62.68;69858.56;5053194;28;20203;-82
2022/06/21 10:11:02;;;;;;;5.07;2.78;;;;;;;-145.69;67.58;69838.66;5053028;28;20202;-81
2022/06/21 10:13:44;;;;;;;7.40;2.83;;;;;;;-145.69;61.09;69828.72;5052928;28;20654;-82
2022/06/21 10:16:27;;;;;;;6.43;2.95;;;;;;;-145.69;62.46;69826.72;5053109;28;20203;-81
2022/06/21 10:19:03;;;;;;;8.20;3.30;;;;;;;-145.69;64.21;69842.66;5052728;28;20213;-79
2022/06/21 10:21:57;;;;;;;8.23;3.30;;;;;;;-145.69;58.76;69777.00;5052662;28;20287;-79
2022/06/21 10:24:40;;;;;;;9.35;2.90;;;;;;;-145.69;61.82;69810.81;5052977;28;20243;-80
2022/06/21 10:27:27;;;;;;;6.05;2.72;;;;;;;-145.69;60.72;69826.72;5052922;28;20227;-81
2022/06/21 10:30:22;;;;;;;5.80;3.25;;;;;;;-145.69;63.79;69806.84;5060032;28;20194;-79
2022/06/21 10:33:08;;;;;;;4.72;3.13;;;;;;;-145.69;58.85;69671.59;5072996;28;20263;-80
2022/06/21 10:35:47;;;;;;;4.88;2.55;;;;;;;-145.69;57.65;69548.28;5072797;28;20206;-80
2022/06/21 10:38:34;;;;;;;5.10;2.80;;;;;;;-145.69;53.30;69639.75;5073167;28;20210;-81
2022/06/21 10:41:19;;;;;;;4.00;2.85;;;;;;;-145.69;54.05;69657.66;5073018;28;20194;-82
2022/06/21 10:44:08;;;;;;;6.60;2.50;;;;;;;-145.69;54.92;69691.47;5072823;28;20206;-81
2022/06/21 10:46:38;;;;;;;4.20;2.60;;;;;;;-145.69;55.41;69703.41;5072535;28;20230;-81
2022/06/21 10:49:28;;;;;;;5.50;2.67;;;;;;;-145.69;53.89;69639.75;5072813;28;20293;-80
2022/06/21 10:52:13;;;;;;;5.03;2.60;;;;;;;-145.69;54.74;69711.38;5072529;28;20253;-80
2022/06/21 10:55:09;;;;;;;6.32;2.92;;;;;;;-145.69;58.66;69611.91;5072540;28;20237;-79
2022/06/21 10:57:46;;;;;;;6.07;2.60;;;;;;;-145.69;59.74;69574.13;5050268;28;20600;-81
2022/06/21 11:03:31;;;;;;;5.63;2.92;;;;;;;-145.69;58.31;69476.66;5071227;28;20421;-80
2022/06/21 11:06:11;;;;;;;4.60;3.00;;;;;;;-145.69;57.02;69472.69;5066295;28;20230;-79
2022/06/21 11:08:49;;;;;;;7.78;3.22;;;;;;;-145.69;57.00;69536.34;5072543;28;20202;-80
2022/06/21 11:11:20;;;;;;;5.45;3.13;;;;;;;-145.69;56.62;69488.59;5072379;28;20206;-81
2022/06/21 11:13:53;;;;;;;6.55;3.22;;;;;;;-145.69;54.39;69488.59;5072291;28;20205;-80
2022/06/21 11:16:31;;;;;;;5.97;2.92;;;;;;;-145.69;55.32;69464.75;5072551;28;20206;-80
2022/06/21 11:19:10;;;;;;;5.03;3.03;;;;;;;-145.69;54.35;69470.72;5072425;28;20213;-81
2022/06/21 11:21:53;;;;;;;5.47;3.45;;;;;;;-145.69;57.58;69484.63;5072201;28;20199;-80
2022/06/21 11:24:31;;;;;;;6.00;2.97;;;;;;;-145.69;56.08;69486.63;5072558;28;20203;-79
2022/06/21 11:27:06;;;;;;;5.95;3.42;;;;;;;-145.69;56.52;69528.38;5072163;28;20588;-80
2022/06/21 11:29:41;;;;;;;7.55;3.42;;;;;;;-145.69;60.34;69512.47;5072628;28;20549;-79
2022/06/21 11:32:25;;;;;;;7.68;2.95;;;;;;;-145.69;52.08;69450.81;5075867;28;20202;-80
2022/06/21 11:35:06;;;;;;;6.95;3.40;;;;;;;-145.69;56.40;69419.00;5075921;28;20218;-79
2022/06/21 11:38:05;;;;;;;6.82;3.72;;;;;;;-145.69;55.17;69536.34;5075807;28;20211;-80
2022/06/21 11:40:46;;;;;;;6.70;3.67;;;;;;;-145.69;56.66;69528.38;5073738;28;20715;-80
2022/06/21 11:43:30;;;;;;;7.28;3.92;;;;;;;-145.69;55.53;69480.66;5055325;28;20234;-80
2022/06/21 11:46:13;;;;;;;10.00;3.45;;;;;;;-145.69;55.43;69428.94;5055710;28;20223;-80
2022/06/21 11:49:03;;;;;;;10.88;3.50;;;;;;;-145.69;56.75;69391.16;5055540;28;20553;-81
2022/06/21 11:51:51;;;;;;;6.63;3.55;;;;;;;-145.69;58.31;69381.19;5042736;28;20203;-80
2022/06/21 11:54:22;;;;;;;5.75;3.00;;;;;;;-145.69;56.20;69353.34;5055555;28;20199;-80
2022/06/21 11:56:58;;;;;;;4.60;3.13;;;;;;;-145.69;58.66;69349.38;5055382;28;20203;-80